Time;durP1;ratioP1;P1;durP2;ratioP2;P2;SDS_P1;SDS_P2;PMS_P1;PMS_P2;Temp;Humidity;BMP_temperature;BMP_pressure;BME280_temperature;BME280_humidity;BME280_pressure;Samples;Min_cycle;Max_cycle;Signal;HPM_P1;HPM_P2
2021/01/23 00:00:31;;;;;;;9.48;7.57;;;;;;;;;;10340665;28;20067;-58
2021/01/23 00:05:29;;;;;;;8.57;5.53;;;;;;;;;;10342252;28;20064;-60
2021/01/23 00:10:27;;;;;;;8.88;6.43;;;;;;;;;;10339991;28;20075;-58
2021/01/23 00:15:27;;;;;;;6.88;6.07;;;;;;;;;;10338963;28;20063;-59
2021/01/23 00:20:25;;;;;;;5.97;5.32;;;;;;;;;;10338881;28;20079;-61
2021/01/23 00:25:23;;;;;;;118.90;45.60;;;;;;;;;;10341010;28;20059;-60
2021/01/23 00:30:21;;;;;;;8.02;6.63;;;;;;;;;;10339484;28;20466;-61
2021/01/23 00:35:18;;;;;;;6.65;5.68;;;;;;;;;;10338193;28;20076;-61
2021/01/23 00:40:15;;;;;;;9.55;8.55;;;;;;;;;;10340360;28;20067;-61
2021/01/23 00:45:14;;;;;;;7.18;6.10;;;;;;;;;;10338714;28;20082;-61
2021/01/23 00:50:12;;;;;;;5.65;5.05;;;;;;;;;;10340602;28;20072;-60
2021/01/23 00:55:11;;;;;;;6.68;5.10;;;;;;;;;;10339230;28;20143;-60
2021/01/23 01:00:11;;;;;;;7.50;6.47;;;;;;;;;;10340291;28;20071;-61
2021/01/23 01:05:13;;;;;;;7.22;5.57;;;;;;;;;;10336476;28;20079;-61
2021/01/23 01:10:11;;;;;;;6.65;5.95;;;;;;;;;;10338175;28;20078;-60
2021/01/23 01:15:09;;;;;;;6.57;5.05;;;;;;;;;;10339355;28;20079;-60
2021/01/23 01:20:07;;;;;;;7.22;5.03;;;;;;;;;;10336537;28;20092;-61
2021/01/23 01:25:07;;;;;;;7.60;5.07;;;;;;;;;;10338102;28;20076;-61
2021/01/23 01:30:05;;;;;;;7.10;5.35;;;;;;;;;;10337940;28;20098;-60
2021/01/23 01:35:04;;;;;;;6.43;4.95;;;;;;;;;;10337273;28;20076;-61
2021/01/23 01:40:01;;;;;;;6.80;6.05;;;;;;;;;;10337565;28;20079;-61
2021/01/23 01:45:01;;;;;;;8.63;5.78;;;;;;;;;;10334352;28;20078;-61
2021/01/23 01:49:59;;;;;;;6.70;6.00;;;;;;;;;;10338700;28;20465;-61
2021/01/23 01:54:56;;;;;;;6.88;6.25;;;;;;;;;;10336007;28;20564;-61
2021/01/23 01:59:54;;;;;;;8.40;5.63;;;;;;;;;;10337308;28;20095;-60
2021/01/23 02:04:58;;;;;;;7.25;6.45;;;;;;;;;;10336035;28;20086;-61
2021/01/23 02:10:15;;;;;;;6.47;4.53;;;;;;;;;;10337177;28;20064;-61
2021/01/23 02:15:13;;;;;;;6.97;5.18;;;;;;;;;;10336566;28;20070;-61
2021/01/23 02:20:32;;;;;;;5.47;4.95;;;;;;;;;;10335353;28;20087;-61
2021/01/23 02:25:32;;;;;;;7.28;5.13;;;;;;;;;;10314709;28;20075;-62
2021/01/23 02:30:34;;;;;;;12.35;5.15;;;;;;;;;;10315243;28;20071;-62
2021/01/23 02:35:33;;;;;;;7.70;5.15;;;;;;;;;;10315182;28;20041;-60
2021/01/23 02:40:34;;;;;;;7.50;5.20;;;;;;;;;;10314808;28;20126;-58
2021/01/23 02:45:32;;;;;;;9.45;6.20;;;;;;;;;;10314479;28;20079;-59
2021/01/23 02:50:29;;;;;;;9.60;5.22;;;;;;;;;;10314401;28;20496;-60
2021/01/23 02:55:30;;;;;;;5.40;4.90;;;;;;;;;;10313620;28;20064;-60
2021/01/23 03:00:29;;;;;;;5.57;4.55;;;;;;;;;;10331112;28;20071;-59
2021/01/23 03:05:26;;;;;;;5.00;4.50;;;;;;;;;;10333768;28;20063;-60
2021/01/23 03:10:34;;;;;;;5.53;4.88;;;;;;;;;;10335583;28;20076;-60
2021/01/23 03:15:31;;;;;;;7.35;5.32;;;;;;;;;;10313704;28;20084;-60
2021/01/23 03:20:28;;;;;;;7.60;5.07;;;;;;;;;;10313380;28;20084;-60
2021/01/23 03:25:26;;;;;;;6.35;4.85;;;;;;;;;;10313870;28;20079;-60
2021/01/23 03:30:25;;;;;;;7.28;5.70;;;;;;;;;;10313037;28;20076;-60
2021/01/23 03:35:22;;;;;;;5.97;4.82;;;;;;;;;;10319228;28;20071;-60
2021/01/23 03:40:20;;;;;;;5.28;4.78;;;;;;;;;;10334032;28;20068;-60
2021/01/23 03:45:17;;;;;;;4.68;3.95;;;;;;;;;;10334045;28;20074;-60
2021/01/23 03:50:15;;;;;;;6.63;5.15;;;;;;;;;;10332951;28;20072;-61
2021/01/23 03:55:13;;;;;;;5.70;4.68;;;;;;;;;;10333128;28;20072;-61
2021/01/23 04:00:11;;;;;;;9.23;5.20;;;;;;;;;;10333182;28;20584;-61
2021/01/23 04:05:09;;;;;;;11.60;5.45;;;;;;;;;;10336337;28;20055;-61
2021/01/23 04:10:08;;;;;;;6.35;5.65;;;;;;;;;;10341469;28;20078;-60
2021/01/23 04:15:07;;;;;;;6.30;5.68;;;;;;;;;;10335421;28;20079;-61
2021/01/23 04:20:05;;;;;;;6.60;5.03;;;;;;;;;;10340717;28;20091;-61
2021/01/23 04:25:03;;;;;;;6.18;4.95;;;;;;;;;;10339561;28;20173;-61
2021/01/23 04:30:01;;;;;;;5.57;4.57;;;;;;;;;;10339339;28;20082;-61
2021/01/23 04:35:00;;;;;;;8.18;5.32;;;;;;;;;;10338570;28;20078;-60
2021/01/23 04:39:57;;;;;;;7.25;4.80;;;;;;;;;;10340390;28;20178;-60
2021/01/23 04:44:57;;;;;;;6.47;5.20;;;;;;;;;;10339273;28;20535;-60
2021/01/23 04:49:55;;;;;;;5.28;4.40;;;;;;;;;;10338758;28;20099;-60
2021/01/23 04:54:52;;;;;;;8.80;5.05;;;;;;;;;;10339750;28;20078;-60
2021/01/23 04:59:50;;;;;;;5.28;4.60;;;;;;;;;;10338407;28;20480;-60
2021/01/23 05:04:48;;;;;;;5.43;4.93;;;;;;;;;;10340067;28;20474;-60
2021/01/23 05:09:47;;;;;;;6.30;5.50;;;;;;;;;;10337166;28;20472;-60
2021/01/23 05:14:52;;;;;;;5.78;4.43;;;;;;;;;;10336698;28;20455;-60
2021/01/23 05:19:49;;;;;;;6.70;5.13;;;;;;;;;;10317665;28;20087;-60
2021/01/23 05:24:48;;;;;;;8.27;6.10;;;;;;;;;;10316936;28;20102;-60
2021/01/23 05:29:58;;;;;;;6.20;4.97;;;;;;;;;;10317687;28;20080;-61
2021/01/23 05:34:56;;;;;;;5.78;4.70;;;;;;;;;;10324007;28;20045;-60
2021/01/23 05:39:54;;;;;;;6.05;5.13;;;;;;;;;;10343461;28;20072;-60
2021/01/23 05:45:05;;;;;;;9.32;5.82;;;;;;;;;;10336564;28;20082;-60
2021/01/23 05:50:03;;;;;;;5.57;4.40;;;;;;;;;;10337433;28;20082;-61
2021/01/23 05:55:02;;;;;;;8.05;4.65;;;;;;;;;;10337017;28;20074;-60
2021/01/23 06:00:00;;;;;;;4.45;3.88;;;;;;;;;;10336266;28;20063;-60
2021/01/23 06:05:00;;;;;;;5.82;4.18;;;;;;;;;;10341138;28;20071;-60
2021/01/23 06:09:58;;;;;;;5.55;4.78;;;;;;;;;;10335521;28;20067;-60
2021/01/23 06:14:56;;;;;;;23.33;11.52;;;;;;;;;;10337390;28;20150;-61
2021/01/23 06:19:53;;;;;;;7.05;5.15;;;;;;;;;;10334135;28;20087;-60
2021/01/23 06:24:51;;;;;;;6.05;4.90;;;;;;;;;;10336668;28;20060;-60
2021/01/23 06:29:48;;;;;;;8.95;4.25;;;;;;;;;;10335163;28;20446;-60
2021/01/23 06:34:47;;;;;;;4.90;4.40;;;;;;;;;;10335322;28;20075;-60
2021/01/23 06:40:05;;;;;;;6.00;4.07;;;;;;;;;;10335578;28;20076;-60
2021/01/23 06:45:16;;;;;;;9.73;5.40;;;;;;;;;;10334675;28;20099;-61
2021/01/23 06:50:26;;;;;;;10.38;6.40;;;;;;;;;;10334660;28;20068;-60
2021/01/23 06:55:42;;;;;;;6.82;5.03;;;;;;;;;;10334385;28;20068;-61
2021/01/23 07:00:40;;;;;;;14.45;7.28;;;;;;;;;;10334109;28;20071;-61
2021/01/23 07:05:45;;;;;;;8.00;6.20;;;;;;;;;;10336047;28;20071;-61
2021/01/23 07:10:42;;;;;;;8.65;5.65;;;;;;;;;;10314476;28;20064;-61
2021/01/23 07:15:43;;;;;;;6.03;5.18;;;;;;;;;;10312651;28;20072;-61
2021/01/23 07:20:40;;;;;;;5.18;4.65;;;;;;;;;;10312724;28;20087;-62
2021/01/23 07:25:38;;;;;;;7.05;5.78;;;;;;;;;;10314046;28;20075;-61
2021/01/23 07:30:36;;;;;;;9.13;5.45;;;;;;;;;;10319238;28;20493;-60
2021/01/23 07:35:36;;;;;;;7.25;5.80;;;;;;;;;;10333505;28;20075;-60
2021/01/23 07:40:35;;;;;;;5.20;4.38;;;;;;;;;;10338057;28;20063;-60
2021/01/23 07:45:34;;;;;;;5.20;3.72;;;;;;;;;;10341069;28;20063;-59
2021/01/23 07:50:36;;;;;;;6.40;4.78;;;;;;;;;;10342664;28;20083;-61
2021/01/23 07:55:37;;;;;;;8.80;5.95;;;;;;;;;;10340784;28;20059;-61
2021/01/23 08:00:36;;;;;;;9.10;8.10;;;;;;;;;;10340472;28;20091;-60
2021/01/23 08:05:43;;;;;;;14.23;11.45;;;;;;;;;;10342267;28;20068;-60
2021/01/23 08:10:40;;;;;;;14.57;12.13;;;;;;;;;;10340193;28;20094;-60
2021/01/23 08:15:40;;;;;;;27.85;22.75;;;;;;;;;;10337774;28;20477;-60
2021/01/23 08:20:38;;;;;;;11.07;8.82;;;;;;;;;;10332421;28;20317;-59
2021/01/23 08:25:37;;;;;;;20.13;15.18;;;;;;;;;;10324163;28;20068;-59
2021/01/23 08:30:36;;;;;;;16.30;14.02;;;;;;;;;;10337626;28;20095;-61
2021/01/23 08:35:35;;;;;;;10.95;7.03;;;;;;;;;;10331885;28;20074;-61
2021/01/23 08:40:33;;;;;;;8.95;5.95;;;;;;;;;;10338804;28;20071;-60
2021/01/23 08:45:31;;;;;;;15.02;11.98;;;;;;;;;;10333310;28;20463;-61
2021/01/23 08:50:28;;;;;;;6.63;5.55;;;;;;;;;;10338823;28;20067;-60
2021/01/23 08:55:26;;;;;;;7.03;5.55;;;;;;;;;;10328151;28;20363;-59
2021/01/23 09:00:24;;;;;;;19.48;11.88;;;;;;;;;;10308282;28;20144;-61
2021/01/23 09:05:21;;;;;;;10.68;6.55;;;;;;;;;;10339922;28;20075;-60
2021/01/23 09:10:20;;;;;;;18.25;11.55;;;;;;;;;;10338190;28;20075;-61
2021/01/23 09:15:18;;;;;;;24.00;14.50;;;;;;;;;;10338780;28;20094;-59
2021/01/23 09:20:15;;;;;;;7.07;4.97;;;;;;;;;;10333372;28;20079;-60
2021/01/23 09:25:13;;;;;;;35.97;18.13;;;;;;;;;;10333243;28;20060;-61
2021/01/23 09:30:11;;;;;;;26.55;15.82;;;;;;;;;;10335461;28;20153;-62
2021/01/23 09:35:10;;;;;;;15.40;11.40;;;;;;;;;;10335105;28;20091;-61
2021/01/23 09:40:08;;;;;;;18.02;10.68;;;;;;;;;;10336801;28;20467;-61
2021/01/23 09:45:05;;;;;;;34.92;21.17;;;;;;;;;;10338227;28;20068;-61
2021/01/23 09:50:03;;;;;;;30.70;17.27;;;;;;;;;;10336900;28;20079;-61
2021/01/23 09:55:02;;;;;;;15.32;10.90;;;;;;;;;;10335105;28;20502;-61
2021/01/23 10:00:00;;;;;;;19.33;12.15;;;;;;;;;;10336930;28;20105;-61
2021/01/23 10:04:57;;;;;;;27.00;18.10;;;;;;;;;;10336561;28;20075;-61
2021/01/23 10:09:55;;;;;;;23.25;13.98;;;;;;;;;;10337499;28;20068;-61
2021/01/23 10:14:53;;;;;;;24.20;18.42;;;;;;;;;;10335475;28;20072;-61
2021/01/23 10:19:51;;;;;;;35.15;22.42;;;;;;;;;;10334614;28;20091;-62
2021/01/23 10:24:48;;;;;;;24.35;20.38;;;;;;;;;;10336845;28;20504;-62
2021/01/23 10:29:46;;;;;;;23.45;19.92;;;;;;;;;;10335911;28;20076;-62
2021/01/23 10:34:44;;;;;;;10.15;5.88;;;;;;;;;;10335194;28;20064;-61
2021/01/23 10:39:41;;;;;;;24.67;11.18;;;;;;;;;;10334697;28;20586;-62
2021/01/23 10:44:40;;;;;;;17.98;10.77;;;;;;;;;;10334587;28;20079;-61
2021/01/23 10:49:37;;;;;;;37.40;25.02;;;;;;;;;;10334327;28;20063;-61
2021/01/23 10:54:36;;;;;;;13.07;9.00;;;;;;;;;;10335849;28;20040;-63
2021/01/23 10:59:33;;;;;;;10.32;8.40;;;;;;;;;;10334224;28;20087;-61
2021/01/23 11:04:30;;;;;;;5.40;3.53;;;;;;;;;;10335150;28;20072;-61
2021/01/23 11:09:28;;;;;;;7.65;3.95;;;;;;;;;;10334475;28;20063;-61
2021/01/23 11:14:26;;;;;;;4.53;3.60;;;;;;;;;;10337103;28;20461;-62
2021/01/23 11:19:24;;;;;;;53.15;32.05;;;;;;;;;;10343562;28;20083;-62
2021/01/23 11:24:21;;;;;;;19.88;13.18;;;;;;;;;;10339794;28;20067;-61
2021/01/23 11:29:18;;;;;;;10.02;7.63;;;;;;;;;;10343487;28;20067;-61
2021/01/23 11:34:16;;;;;;;5.85;5.07;;;;;;;;;;10341975;28;20063;-61
2021/01/23 11:39:14;;;;;;;21.92;11.63;;;;;;;;;;10342373;28;20068;-61
2021/01/23 11:44:13;;;;;;;7.97;7.05;;;;;;;;;;10341933;28;20078;-61
2021/01/23 11:49:10;;;;;;;39.63;13.50;;;;;;;;;;10340599;28;20072;-61
2021/01/23 11:54:08;;;;;;;7.43;4.97;;;;;;;;;;10342644;28;20072;-61
2021/01/23 11:59:06;;;;;;;8.70;7.60;;;;;;;;;;10340305;28;20068;-61
2021/01/23 12:04:03;;;;;;;8.63;6.38;;;;;;;;;;10342025;28;20071;-61
2021/01/23 12:09:01;;;;;;;9.90;6.78;;;;;;;;;;10340681;28;20619;-62
2021/01/23 12:13:59;;;;;;;9.18;6.50;;;;;;;;;;10340855;28;20068;-61
2021/01/23 12:18:57;;;;;;;34.92;17.45;;;;;;;;;;10340264;28;20083;-61
2021/01/23 12:23:54;;;;;;;13.25;8.90;;;;;;;;;;10339680;28;20083;-61
2021/01/23 12:28:52;;;;;;;12.35;8.70;;;;;;;;;;10341489;28;20067;-61
2021/01/23 12:33:53;;;;;;;30.27;19.92;;;;;;;;;;10338574;28;20456;-60
2021/01/23 12:38:53;;;;;;;15.30;7.97;;;;;;;;;;10301867;28;20171;-61
2021/01/23 12:43:50;;;;;;;18.27;12.75;;;;;;;;;;10322883;28;20465;-59
2021/01/23 12:48:49;;;;;;;12.88;9.15;;;;;;;;;;10340572;28;20056;-61
2021/01/23 12:53:47;;;;;;;91.80;61.03;;;;;;;;;;10336738;28;21270;-62
2021/01/23 12:58:45;;;;;;;17.85;13.32;;;;;;;;;;10341827;28;20076;-62
2021/01/23 13:03:42;;;;;;;34.67;29.02;;;;;;;;;;10339046;28;20067;-61
2021/01/23 13:08:39;;;;;;;14.13;10.80;;;;;;;;;;10337976;28;20070;-60
2021/01/23 13:13:38;;;;;;;7.25;5.63;;;;;;;;;;10338174;28;20263;-61
2021/01/23 13:18:35;;;;;;;9.02;6.40;;;;;;;;;;10336750;28;20110;-61
2021/01/23 13:23:33;;;;;;;11.57;7.18;;;;;;;;;;10337094;28;20117;-62
2021/01/23 13:28:30;;;;;;;38.28;21.90;;;;;;;;;;10332478;28;20071;-61
2021/01/23 13:33:29;;;;;;;23.80;15.38;;;;;;;;;;10315852;28;20076;-61
2021/01/23 13:38:26;;;;;;;192.48;86.85;;;;;;;;;;10314637;28;20064;-61
2021/01/23 13:43:23;;;;;;;184.02;86.03;;;;;;;;;;10314070;28;20072;-62
2021/01/23 13:48:21;;;;;;;117.63;54.05;;;;;;;;;;10328421;28;20099;-61
2021/01/23 13:53:19;;;;;;;205.63;114.43;;;;;;;;;;10337085;28;20102;-62
2021/01/23 13:58:16;;;;;;;94.90;53.95;;;;;;;;;;10337659;28;20075;-62
2021/01/23 14:03:13;;;;;;;59.72;37.88;;;;;;;;;;10336082;28;20068;-61
2021/01/23 14:08:11;;;;;;;32.55;17.00;;;;;;;;;;10335882;28;20094;-62
2021/01/23 14:13:09;;;;;;;233.15;121.38;;;;;;;;;;10332388;28;20079;-62
2021/01/23 14:18:06;;;;;;;74.13;32.78;;;;;;;;;;10329383;28;20094;-62
2021/01/23 14:23:04;;;;;;;70.13;32.90;;;;;;;;;;10334644;28;20079;-61
2021/01/23 14:28:01;;;;;;;155.25;63.72;;;;;;;;;;10334445;28;20098;-62
2021/01/23 14:33:00;;;;;;;72.45;32.17;;;;;;;;;;10335948;28;20140;-62
2021/01/23 14:37:58;;;;;;;49.47;25.75;;;;;;;;;;10334742;28;20173;-62
2021/01/23 14:42:56;;;;;;;216.10;96.25;;;;;;;;;;10334515;28;20083;-61
2021/01/23 14:47:53;;;;;;;403.60;161.32;;;;;;;;;;10334175;28;20320;-61
2021/01/23 14:52:52;;;;;;;143.80;53.15;;;;;;;;;;10333718;28;20064;-60
2021/01/23 14:57:49;;;;;;;154.95;56.05;;;;;;;;;;10335442;28;20056;-61
2021/01/23 15:02:46;;;;;;;90.40;35.50;;;;;;;;;;10333328;28;20090;-62
2021/01/23 15:07:46;;;;;;;111.15;45.33;;;;;;;;;;10335084;28;20067;-62
2021/01/23 15:12:44;;;;;;;25.45;14.23;;;;;;;;;;10333342;28;20508;-62
2021/01/23 15:17:41;;;;;;;15.80;10.65;;;;;;;;;;10334002;28;20466;-62
2021/01/23 15:22:39;;;;;;;26.38;19.60;;;;;;;;;;10334138;28;20090;-61
2021/01/23 15:27:36;;;;;;;14.02;9.32;;;;;;;;;;10333544;28;20076;-60
2021/01/23 15:32:34;;;;;;;36.45;17.85;;;;;;;;;;10333738;28;20524;-61
2021/01/23 15:37:33;;;;;;;52.90;22.88;;;;;;;;;;10332688;28;20071;-61
2021/01/23 15:42:31;;;;;;;11.00;7.25;;;;;;;;;;10329591;28;20509;-62
2021/01/23 15:47:28;;;;;;;146.95;62.78;;;;;;;;;;10330272;28;20065;-61
2021/01/23 15:52:27;;;;;;;51.03;23.10;;;;;;;;;;10333627;28;20064;-61
2021/01/23 15:57:24;;;;;;;176.60;80.57;;;;;;;;;;10333411;28;20484;-62
2021/01/23 16:02:21;;;;;;;72.38;33.83;;;;;;;;;;10337174;28;20083;-60
2021/01/23 16:07:19;;;;;;;69.45;35.50;;;;;;;;;;10331733;28;20079;-61
2021/01/23 16:12:18;;;;;;;42.08;25.48;;;;;;;;;;10327066;28;20078;-60
2021/01/23 16:17:15;;;;;;;11.02;7.25;;;;;;;;;;10336902;28;20076;-59
2021/01/23 16:22:13;;;;;;;35.15;20.20;;;;;;;;;;10338627;28;20063;-61
2021/01/23 16:27:11;;;;;;;23.20;13.50;;;;;;;;;;10335271;28;20074;-61
2021/01/23 16:32:09;;;;;;;14.75;8.95;;;;;;;;;;10336348;28;20076;-58
2021/01/23 16:37:07;;;;;;;11.88;7.07;;;;;;;;;;10339358;28;20528;-59
2021/01/23 16:42:09;;;;;;;9.15;6.22;;;;;;;;;;10340064;28;20532;-61
2021/01/23 16:47:06;;;;;;;38.97;30.08;;;;;;;;;;10339827;28;20045;-60
2021/01/23 16:52:05;;;;;;;11.73;7.60;;;;;;;;;;10339996;28;20492;-61
2021/01/23 16:57:03;;;;;;;10.45;6.60;;;;;;;;;;10338923;28;20068;-61
2021/01/23 17:02:00;;;;;;;18.73;12.80;;;;;;;;;;10340286;28;20095;-61
2021/01/23 17:06:57;;;;;;;16.67;12.20;;;;;;;;;;10338382;28;20113;-61
2021/01/23 17:11:56;;;;;;;11.48;8.05;;;;;;;;;;10337823;28;20064;-61
2021/01/23 17:16:53;;;;;;;10.77;6.43;;;;;;;;;;10337979;28;20063;-60
2021/01/23 17:21:50;;;;;;;10.05;6.28;;;;;;;;;;10338414;28;20068;-60
2021/01/23 17:26:48;;;;;;;14.70;9.85;;;;;;;;;;10338572;28;20060;-61
2021/01/23 17:31:46;;;;;;;12.63;8.48;;;;;;;;;;10337036;28;20453;-61
2021/01/23 17:36:43;;;;;;;15.07;10.88;;;;;;;;;;10338911;28;20068;-61
2021/01/23 17:41:41;;;;;;;9.23;6.53;;;;;;;;;;10336630;28;20466;-61
2021/01/23 17:46:38;;;;;;;10.75;7.18;;;;;;;;;;10337955;28;20518;-61
2021/01/23 17:51:37;;;;;;;47.38;29.63;;;;;;;;;;10336710;28;20527;-64
2021/01/23 17:56:35;;;;;;;29.80;17.70;;;;;;;;;;10336869;28;20037;-61
2021/01/23 18:01:32;;;;;;;15.82;4.05;;;;;;;;;;10337358;28;20079;-61
2021/01/23 18:06:30;;;;;;;16.73;11.15;;;;;;;;;;10336189;28;20071;-62
2021/01/23 18:11:28;;;;;;;18.60;12.32;;;;;;;;;;10334147;28;20091;-61
2021/01/23 18:16:25;;;;;;;14.80;8.90;;;;;;;;;;10331427;28;20087;-61
2021/01/23 18:21:23;;;;;;;11.90;7.00;;;;;;;;;;10332052;28;20086;-62
2021/01/23 18:26:21;;;;;;;14.93;10.55;;;;;;;;;;10334597;28;20072;-61
2021/01/23 18:31:19;;;;;;;14.65;9.55;;;;;;;;;;10332765;28;20071;-61
2021/01/23 18:36:17;;;;;;;24.27;15.20;;;;;;;;;;10326585;28;20067;-62
2021/01/23 18:41:14;;;;;;;34.97;16.35;;;;;;;;;;10333303;28;20072;-61
2021/01/23 18:46:29;;;;;;;21.58;11.40;;;;;;;;;;10334610;28;20079;-63
2021/01/23 18:51:27;;;;;;;30.90;16.70;;;;;;;;;;10333392;28;20067;-60
2021/01/23 18:56:24;;;;;;;41.83;20.90;;;;;;;;;;10334778;28;20086;-61
2021/01/23 19:01:22;;;;;;;11.65;7.18;;;;;;;;;;10334660;28;20074;-60
2021/01/23 19:06:20;;;;;;;32.50;17.48;;;;;;;;;;10334512;28;20071;-61
2021/01/23 19:11:18;;;;;;;9.48;5.13;;;;;;;;;;10333780;28;20068;-60
2021/01/23 19:16:15;;;;;;;17.48;9.52;;;;;;;;;;10334397;28;20076;-60
2021/01/23 19:21:12;;;;;;;18.00;12.23;;;;;;;;;;10332984;28;20086;-60
2021/01/23 19:26:11;;;;;;;17.33;10.20;;;;;;;;;;10334343;28;20083;-60
2021/01/23 19:31:08;;;;;;;93.35;73.28;;;;;;;;;;10332236;28;20074;-61
2021/01/23 19:36:06;;;;;;;13.48;9.02;;;;;;;;;;10336954;28;20060;-60
2021/01/23 19:41:04;;;;;;;32.00;22.77;;;;;;;;;;10342134;28;20079;-55
2021/01/23 19:46:03;;;;;;;17.17;10.15;;;;;;;;;;10339818;28;20469;-61
2021/01/23 19:51:01;;;;;;;18.42;9.43;;;;;;;;;;10339355;28;20076;-60
2021/01/23 19:55:58;;;;;;;16.23;9.43;;;;;;;;;;10342332;28;20084;-59
2021/01/23 20:00:56;;;;;;;8.30;6.25;;;;;;;;;;10339441;28;20079;-59
2021/01/23 20:05:54;;;;;;;10.05;5.60;;;;;;;;;;10340096;28;20076;-60
2021/01/23 20:10:52;;;;;;;14.25;7.05;;;;;;;;;;10340322;28;20486;-59
2021/01/23 20:15:49;;;;;;;13.55;6.82;;;;;;;;;;10319189;28;20075;-61
2021/01/23 20:20:47;;;;;;;10.13;5.85;;;;;;;;;;10316973;28;20080;-60
2021/01/23 20:25:45;;;;;;;15.63;8.00;;;;;;;;;;10318397;28;20064;-60
2021/01/23 20:30:43;;;;;;;27.17;15.90;;;;;;;;;;10318513;28;20473;-62
2021/01/23 20:35:40;;;;;;;14.93;9.38;;;;;;;;;;10317776;28;20615;-61
2021/01/23 20:40:38;;;;;;;11.07;7.70;;;;;;;;;;10318463;28;20068;-60
2021/01/23 20:45:36;;;;;;;14.82;10.57;;;;;;;;;;10315348;28;20537;-62
2021/01/23 20:50:33;;;;;;;10.77;7.65;;;;;;;;;;10317658;28;20505;-59
2021/01/23 20:55:31;;;;;;;14.65;10.65;;;;;;;;;;10317595;28;20079;-61
2021/01/23 21:00:28;;;;;;;9.15;4.90;;;;;;;;;;10339302;28;20061;-62
2021/01/23 21:05:27;;;;;;;9.23;5.95;;;;;;;;;;10336350;28;20059;-61
2021/01/23 21:10:24;;;;;;;8.98;4.85;;;;;;;;;;10338863;28;20064;-59
2021/01/23 21:15:23;;;;;;;6.18;4.53;;;;;;;;;;10337716;28;20447;-62
2021/01/23 21:20:20;;;;;;;7.63;4.28;;;;;;;;;;10337658;28;20084;-61
2021/01/23 21:25:18;;;;;;;94.93;83.78;;;;;;;;;;10335567;28;20064;-61
2021/01/23 21:30:17;;;;;;;6.72;4.53;;;;;;;;;;10336945;28;20068;-61
2021/01/23 21:35:15;;;;;;;7.40;4.20;;;;;;;;;;10335839;28;20078;-60
2021/01/23 21:40:13;;;;;;;20.05;15.45;;;;;;;;;;10326430;28;20072;-60
2021/01/23 21:45:12;;;;;;;10.85;4.10;;;;;;;;;;10323311;28;20068;-59
2021/01/23 21:50:09;;;;;;;10.40;5.82;;;;;;;;;;10339748;28;20079;-61
2021/01/23 21:55:07;;;;;;;6.30;3.53;;;;;;;;;;10335831;28;20480;-62
2021/01/23 22:00:06;;;;;;;6.13;3.65;;;;;;;;;;10336543;28;21912;-61
2021/01/23 22:05:07;;;;;;;8.27;5.57;;;;;;;;;;10337959;28;20492;-62
2021/01/23 22:10:06;;;;;;;7.55;4.57;;;;;;;;;;10336805;28;20099;-61
2021/01/23 22:15:04;;;;;;;7.85;3.33;;;;;;;;;;10336998;28;20075;-63
2021/01/23 22:20:02;;;;;;;6.72;3.70;;;;;;;;;;10335785;28;20083;-61
2021/01/23 22:25:00;;;;;;;8.68;4.13;;;;;;;;;;10336259;28;20067;-61
2021/01/23 22:29:58;;;;;;;6.10;3.80;;;;;;;;;;10335308;28;20076;-61
2021/01/23 22:34:55;;;;;;;6.53;3.47;;;;;;;;;;10333931;28;20071;-61
2021/01/23 22:39:52;;;;;;;6.28;2.72;;;;;;;;;;10336655;28;20170;-61
2021/01/23 22:44:51;;;;;;;5.38;2.58;;;;;;;;;;10335595;28;20064;-61
2021/01/23 22:49:48;;;;;;;6.65;3.17;;;;;;;;;;10335548;28;20070;-60
2021/01/23 22:54:45;;;;;;;5.25;2.72;;;;;;;;;;10335828;28;20094;-63
2021/01/23 22:59:43;;;;;;;7.15;2.67;;;;;;;;;;10331810;28;20062;-61
2021/01/23 23:04:41;;;;;;;6.82;3.50;;;;;;;;;;10335747;28;20091;-61
2021/01/23 23:09:39;;;;;;;4.32;3.20;;;;;;;;;;10341638;28;20448;-61
2021/01/23 23:14:36;;;;;;;3.92;2.33;;;;;;;;;;10342125;28;20071;-61
2021/01/23 23:19:33;;;;;;;3.88;2.83;;;;;;;;;;10334666;28;20068;-62
2021/01/23 23:24:32;;;;;;;4.18;2.60;;;;;;;;;;10334924;28;20516;-63
2021/01/23 23:29:29;;;;;;;5.95;3.10;;;;;;;;;;10333016;28;20064;-61
2021/01/23 23:34:26;;;;;;;4.97;2.80;;;;;;;;;;10334730;28;20072;-60
2021/01/23 23:39:24;;;;;;;11.35;6.13;;;;;;;;;;10333744;28;20060;-61
2021/01/23 23:44:22;;;;;;;7.97;3.65;;;;;;;;;;10335520;28;20559;-62
2021/01/23 23:49:19;;;;;;;4.75;2.47;;;;;;;;;;10333043;28;20063;-61
2021/01/23 23:54:16;;;;;;;13.43;3.15;;;;;;;;;;10334440;28;20064;-61
2021/01/23 23:59:14;;;;;;;19.13;10.20;;;;;;;;;;10334260;28;20068;-61
